Time;durP1;ratioP1;P1;durP2;ratioP2;P2;SDS_P1;SDS_P2;PMS_P1;PMS_P2;Temp;Humidity;BMP_temperature;BMP_pressure;BME280_temperature;BME280_humidity;BME280_pressure;Samples;Min_cycle;Max_cycle;Signal;HPM_P1;HPM_P2
2023/02/19 00:01:45;;;;;;;14.43;3.10;;;9.80;99.90;;;;;;4986361;28;20364;-61
2023/02/19 00:04:13;;;;;;;22.02;3.85;;;9.80;99.90;;;;;;4998850;28;20422;-61
2023/02/19 00:06:41;;;;;;;19.60;3.10;;;9.80;99.90;;;;;;4986820;28;20042;-61
2023/02/19 00:09:09;;;;;;;20.48;4.63;;;9.80;99.90;;;;;;5003767;28;20050;-61
2023/02/19 00:11:38;;;;;;;23.17;3.75;;;9.80;99.90;;;;;;4971163;28;20069;-60
2023/02/19 00:14:09;;;;;;;15.05;3.17;;;9.80;99.90;;;;;;5012408;28;20056;-60
2023/02/19 00:16:37;;;;;;;18.13;3.60;;;9.70;99.90;;;;;;4986920;28;20053;-59
2023/02/19 00:19:06;;;;;;;17.23;3.20;;;9.70;99.90;;;;;;5000247;28;20038;-60
2023/02/19 00:21:33;;;;;;;19.17;3.15;;;9.70;99.90;;;;;;5004223;28;20103;-60
2023/02/19 00:24:06;;;;;;;23.98;5.45;;;9.70;99.90;;;;;;5003482;28;20041;-60
2023/02/19 00:26:32;;;;;;;21.45;5.35;;;9.70;99.90;;;;;;4986666;28;20236;-61
2023/02/19 00:28:59;;;;;;;19.92;3.08;;;9.70;99.90;;;;;;5003809;28;20714;-60
2023/02/19 00:31:29;;;;;;;16.83;3.83;;;9.70;99.90;;;;;;5004282;28;20141;-61
2023/02/19 00:34:02;;;;;;;16.38;2.70;;;9.70;99.90;;;;;;4985363;28;20046;-61
2023/02/19 00:36:34;;;;;;;16.25;3.67;;;9.60;99.90;;;;;;5004040;28;20076;-61
2023/02/19 00:39:02;;;;;;;12.35;3.50;;;9.60;99.90;;;;;;5002730;28;20054;-61
2023/02/19 00:41:29;;;;;;;19.05;3.33;;;9.70;99.90;;;;;;5004449;28;20092;-60
2023/02/19 00:44:04;;;;;;;18.50;3.55;;;9.70;99.90;;;;;;4986354;28;20129;-59
2023/02/19 00:46:44;;;;;;;18.67;4.25;;;9.70;99.90;;;;;;5002881;28;20052;-61
2023/02/19 00:49:19;;;;;;;11.85;2.90;;;9.70;99.90;;;;;;5003068;28;20077;-60
2023/02/19 00:51:47;;;;;;;14.05;3.10;;;9.70;99.90;;;;;;5003596;28;20050;-60
2023/02/19 00:54:14;;;;;;;17.88;3.05;;;9.70;99.90;;;;;;5003195;28;20493;-61
2023/02/19 00:56:41;;;;;;;19.02;2.80;;;9.70;99.90;;;;;;5004048;28;20058;-61
2023/02/19 00:59:08;;;;;;;21.40;3.75;;;9.60;99.90;;;;;;5003114;28;20177;-60
2023/02/19 01:01:35;;;;;;;16.55;3.13;;;9.60;99.90;;;;;;5003429;28;20366;-61
2023/02/19 01:04:02;;;;;;;13.23;3.00;;;9.60;99.90;;;;;;4985455;28;20145;-62
2023/02/19 01:06:33;;;;;;;12.68;3.00;;;9.60;99.90;;;;;;4970867;28;20042;-61
2023/02/19 01:09:00;;;;;;;17.50;3.20;;;9.60;99.90;;;;;;5003387;28;20058;-60
2023/02/19 01:11:27;;;;;;;23.88;3.28;;;9.50;99.90;;;;;;5003828;28;20049;-61
2023/02/19 01:13:58;;;;;;;14.82;2.70;;;9.50;99.90;;;;;;5002549;28;20050;-60
2023/02/19 01:16:26;;;;;;;15.52;2.92;;;9.50;99.90;;;;;;4997620;28;20116;-60
2023/02/19 01:18:53;;;;;;;25.92;3.88;;;9.50;99.90;;;;;;5001708;28;20054;-60
2023/02/19 01:21:21;;;;;;;17.75;3.13;;;9.50;99.90;;;;;;5004303;28;20046;-60
2023/02/19 01:23:48;;;;;;;24.33;3.60;;;9.60;99.90;;;;;;5006226;28;20058;-60
2023/02/19 01:26:20;;;;;;;17.83;3.63;;;9.50;99.90;;;;;;5006888;28;20137;-59
2023/02/19 01:28:47;;;;;;;12.18;3.15;;;9.50;99.90;;;;;;5004999;28;20046;-59
2023/02/19 01:31:16;;;;;;;24.75;4.30;;;9.40;99.90;;;;;;5006291;28;20045;-58
2023/02/19 01:33:50;;;;;;;20.38;3.50;;;9.40;99.90;;;;;;5006637;28;20045;-60
2023/02/19 01:36:17;;;;;;;23.75;6.22;;;9.50;99.90;;;;;;5005388;28;20134;-59
2023/02/19 01:38:44;;;;;;;20.05;3.45;;;9.50;99.90;;;;;;5025381;28;20357;-60
2023/02/19 01:41:14;;;;;;;17.75;3.45;;;9.50;99.90;;;;;;5009335;28;20129;-60
2023/02/19 01:44:01;;;;;;;24.42;3.45;;;9.50;99.90;;;;;;4985127;28;20104;-60
2023/02/19 01:46:29;;;;;;;16.30;3.38;;;9.60;99.90;;;;;;5002206;28;20069;-60
2023/02/19 01:49:01;;;;;;;18.30;3.40;;;9.60;99.90;;;;;;5004943;28;20042;-59
2023/02/19 01:51:28;;;;;;;18.88;3.92;;;9.60;99.90;;;;;;4987325;28;20053;-60
2023/02/19 01:53:56;;;;;;;21.85;3.38;;;9.60;99.90;;;;;;4972545;28;20046;-62
2023/02/19 01:56:22;;;;;;;22.25;3.33;;;9.60;99.90;;;;;;4996788;28;20060;-59
2023/02/19 01:58:49;;;;;;;16.13;3.33;;;9.60;99.90;;;;;;5009806;28;20056;-61
2023/02/19 02:01:16;;;;;;;16.65;3.45;;;9.60;99.90;;;;;;5008827;28;20046;-60
2023/02/19 02:03:44;;;;;;;17.60;2.95;;;9.60;99.90;;;;;;5006120;28;20065;-59
2023/02/19 02:06:24;;;;;;;23.25;3.75;;;9.50;99.90;;;;;;4975986;28;20049;-59
2023/02/19 02:11:44;;;;;;;14.35;3.30;;;9.50;99.90;;;;;;4960704;28;20242;-60
2023/02/19 02:14:11;;;;;;;24.95;4.72;;;9.50;99.90;;;;;;4976221;28;20109;-60
2023/02/19 02:17:06;;;;;;;14.85;4.53;;;9.40;99.90;;;;;;4982859;28;20132;-60
2023/02/19 02:20:01;;;;;;;14.30;3.63;;;9.30;99.90;;;;;;4987886;28;20531;-60
2023/02/19 02:22:37;;;;;;;15.13;3.40;;;9.20;99.90;;;;;;5015151;28;20517;-60
2023/02/19 02:25:29;;;;;;;14.23;2.75;;;9.20;99.90;;;;;;4972021;28;20136;-61
2023/02/19 02:28:01;;;;;;;12.43;3.40;;;9.20;99.90;;;;;;4989845;28;20245;-60
2023/02/19 02:30:40;;;;;;;15.38;3.50;;;9.10;99.90;;;;;;4992396;28;20492;-60
2023/02/19 02:33:21;;;;;;;17.45;3.00;;;9.10;99.90;;;;;;4980860;28;20054;-59
2023/02/19 02:36:16;;;;;;;16.67;3.08;;;9.10;99.90;;;;;;4992501;28;20057;-60
2023/02/19 02:38:43;;;;;;;12.35;3.58;;;9.10;99.90;;;;;;4985996;28;20065;-60
2023/02/19 02:41:11;;;;;;;15.20;3.15;;;9.10;99.90;;;;;;4975752;28;20041;-60
2023/02/19 02:43:38;;;;;;;20.92;3.20;;;9.10;99.90;;;;;;4975538;28;20058;-60
2023/02/19 02:46:05;;;;;;;21.80;3.63;;;9.00;99.90;;;;;;5009061;28;20493;-60
2023/02/19 02:48:43;;;;;;;15.00;3.08;;;9.00;99.90;;;;;;4991965;28;20052;-61
2023/02/19 02:51:18;;;;;;;16.98;2.78;;;9.00;99.90;;;;;;4992742;28;20081;-59
2023/02/19 02:56:53;;;;;;;17.95;3.35;;;8.80;99.90;;;;;;5008740;28;20083;-60
2023/02/19 02:59:24;;;;;;;14.38;3.08;;;8.90;99.90;;;;;;4991977;28;20416;-60
2023/02/19 03:02:10;;;;;;;13.23;3.38;;;8.80;99.90;;;;;;4958545;28;20045;-60
2023/02/19 03:07:43;;;;;;;13.68;3.03;;;8.80;99.90;;;;;;4981113;28;20054;-61
2023/02/19 03:10:12;;;;;;;17.95;3.22;;;8.70;99.90;;;;;;4975205;28;20054;-60
2023/02/19 03:20:58;;;;;;;14.43;2.60;;;8.70;99.90;;;;;;4963510;28;20046;-59
2023/02/19 03:26:02;;;;;;;24.25;3.08;;;8.70;99.90;;;;;;4984198;28;20085;-62
2023/02/19 03:26:13;;;;;;;19.20;4.28;;;8.80;99.90;;;;;;4980841;28;20047;-59
2023/02/19 03:31:27;;;;;;;13.23;2.90;;;8.80;99.90;;;;;;4974837;28;20057;-59
2023/02/19 03:33:56;;;;;;;18.70;3.88;;;8.80;99.90;;;;;;4955546;28;20115;-58
2023/02/19 03:36:25;;;;;;;16.67;3.00;;;8.80;99.90;;;;;;4963809;28;20056;-60
2023/02/19 03:38:58;;;;;;;10.38;2.17;;;8.80;99.90;;;;;;4982834;28;20053;-59
2023/02/19 03:41:41;;;;;;;13.88;2.90;;;8.80;99.90;;;;;;4977133;28;20075;-60
2023/02/19 03:44:58;;;;;;;13.55;3.13;;;8.80;99.90;;;;;;4971391;28;20412;-60
2023/02/19 03:47:32;;;;;;;12.15;2.13;;;8.80;99.90;;;;;;4924868;29;20104;-59
2023/02/19 03:50:05;;;;;;;12.30;2.92;;;8.80;99.90;;;;;;4954012;28;20083;-60
2023/02/19 03:52:41;;;;;;;10.98;2.83;;;8.80;99.90;;;;;;4984230;28;20050;-60
2023/02/19 03:55:30;;;;;;;15.73;2.65;;;8.80;99.90;;;;;;4978075;28;20051;-60
2023/02/19 03:58:03;;;;;;;17.67;2.40;;;8.70;99.90;;;;;;4963200;28;20051;-60
2023/02/19 04:00:44;;;;;;;16.65;3.08;;;8.70;99.90;;;;;;4973301;28;20043;-60
2023/02/19 04:03:17;;;;;;;20.35;3.92;;;8.70;99.90;;;;;;4979620;28;20054;-60
2023/02/19 04:05:47;;;;;;;7.88;2.03;;;8.70;99.90;;;;;;4971468;28;20061;-60
2023/02/19 04:08:16;;;;;;;15.95;4.05;;;8.60;99.90;;;;;;4986264;28;20527;-60
2023/02/19 04:10:44;;;;;;;10.93;2.60;;;8.70;99.90;;;;;;4983684;28;20042;-60
2023/02/19 04:13:17;;;;;;;7.93;2.13;;;8.60;99.90;;;;;;4982439;28;20054;-61
2023/02/19 04:15:44;;;;;;;18.80;4.85;;;8.60;99.90;;;;;;4988028;28;20073;-60
2023/02/19 04:18:16;;;;;;;11.68;3.03;;;8.60;99.90;;;;;;4986190;28;20057;-61
2023/02/19 04:20:44;;;;;;;13.35;2.63;;;8.50;99.90;;;;;;4986735;28;20137;-59
2023/02/19 04:23:11;;;;;;;9.00;2.33;;;8.50;99.90;;;;;;4985862;28;20042;-60
2023/02/19 04:25:39;;;;;;;14.20;2.50;;;8.50;99.90;;;;;;4987248;28;20046;-59
2023/02/19 04:28:07;;;;;;;10.73;2.03;;;8.50;99.90;;;;;;4986120;28;20479;-60
2023/02/19 04:30:33;;;;;;;11.55;1.80;;;8.60;99.90;;;;;;4970580;28;20523;-59
2023/02/19 04:33:00;;;;;;;8.18;2.97;;;8.60;99.90;;;;;;4987788;28;20130;-59
2023/02/19 04:35:27;;;;;;;11.73;2.22;;;8.60;99.90;;;;;;4987981;28;20046;-59
2023/02/19 04:37:54;;;;;;;18.92;4.07;;;8.60;99.90;;;;;;4987584;28;20047;-57
2023/02/19 04:40:21;;;;;;;10.98;2.25;;;8.60;99.90;;;;;;4987705;28;20074;-60
2023/02/19 04:42:48;;;;;;;12.90;2.47;;;8.70;99.90;;;;;;4987533;28;20050;-60
2023/02/19 04:45:14;;;;;;;10.43;2.63;;;8.70;99.90;;;;;;4987834;28;20046;-61
2023/02/19 04:47:41;;;;;;;11.90;2.70;;;8.70;99.90;;;;;;4987762;28;20108;-61
2023/02/19 04:50:08;;;;;;;10.13;2.03;;;8.70;99.90;;;;;;4986381;28;20046;-61
2023/02/19 04:52:35;;;;;;;15.00;2.53;;;8.70;99.90;;;;;;4987377;28;20457;-61
2023/02/19 04:55:02;;;;;;;10.57;2.00;;;8.70;99.90;;;;;;4985669;28;20057;-60
2023/02/19 04:57:28;;;;;;;11.13;2.00;;;8.80;99.90;;;;;;4987183;28;20139;-61
2023/02/19 04:59:55;;;;;;;12.68;2.30;;;8.80;99.90;;;;;;4987572;28;20057;-60
2023/02/19 05:02:22;;;;;;;13.68;3.03;;;8.80;99.90;;;;;;4987162;28;20049;-61
2023/02/19 05:04:48;;;;;;;14.80;2.38;;;8.90;99.90;;;;;;4987614;28;20082;-60
2023/02/19 05:07:15;;;;;;;11.50;2.22;;;8.90;99.90;;;;;;4987321;28;20078;-61
2023/02/19 05:09:42;;;;;;;9.70;1.75;;;8.90;99.90;;;;;;4987608;28;20050;-64
2023/02/19 05:12:09;;;;;;;7.00;2.50;;;8.90;99.90;;;;;;4991257;28;20584;-61
2023/02/19 05:14:35;;;;;;;15.15;3.88;;;8.90;99.90;;;;;;5007277;28;20050;-60
2023/02/19 05:17:02;;;;;;;10.68;1.92;;;9.00;99.90;;;;;;5006713;28;20042;-60
2023/02/19 05:19:29;;;;;;;10.90;1.80;;;9.00;99.90;;;;;;5006816;28;20512;-59
2023/02/19 05:21:55;;;;;;;10.68;2.33;;;9.00;99.90;;;;;;5006428;28;20050;-60
2023/02/19 05:24:23;;;;;;;10.75;2.78;;;9.00;99.90;;;;;;5006487;28;20085;-60
2023/02/19 05:26:50;;;;;;;8.00;1.95;;;9.00;99.90;;;;;;5005927;28;20493;-60
2023/02/19 05:29:16;;;;;;;10.35;2.40;;;9.00;99.90;;;;;;5007674;28;20042;-61
2023/02/19 05:31:43;;;;;;;8.48;1.80;;;9.00;99.90;;;;;;5011009;28;20072;-59
2023/02/19 05:34:10;;;;;;;9.27;1.70;;;8.90;99.90;;;;;;5009616;28;20133;-61
2023/02/19 05:36:37;;;;;;;7.60;1.92;;;8.90;99.90;;;;;;5010825;28;20480;-61
2023/02/19 05:39:06;;;;;;;7.82;1.38;;;8.80;99.90;;;;;;4992868;28;20374;-60
2023/02/19 05:41:32;;;;;;;14.23;4.35;;;8.80;99.90;;;;;;5010506;28;20489;-60
2023/02/19 05:43:59;;;;;;;11.20;1.75;;;8.80;99.90;;;;;;5009874;28;20062;-60
2023/02/19 05:46:28;;;;;;;9.07;2.65;;;8.80;99.90;;;;;;4993139;28;20046;-61
2023/02/19 05:48:55;;;;;;;14.13;1.52;;;8.80;99.90;;;;;;5009946;28;20042;-60
2023/02/19 05:51:23;;;;;;;10.13;1.80;;;8.70;99.90;;;;;;4992724;28;20137;-60
2023/02/19 05:53:50;;;;;;;4.15;1.52;;;8.60;99.90;;;;;;5009474;28;20133;-61
2023/02/19 05:56:23;;;;;;;11.23;1.83;;;8.60;99.90;;;;;;4996940;28;20566;-60
2023/02/19 05:58:50;;;;;;;12.38;1.55;;;8.60;99.90;;;;;;4981449;28;20060;-60
2023/02/19 06:01:17;;;;;;;9.60;2.55;;;8.60;99.90;;;;;;5010144;28;20084;-60
2023/02/19 06:03:44;;;;;;;11.45;2.10;;;8.60;99.90;;;;;;5009382;28;20465;-60
2023/02/19 06:06:14;;;;;;;9.43;1.95;;;8.60;99.90;;;;;;4992367;28;20505;-60
2023/02/19 06:08:41;;;;;;;12.48;1.85;;;8.60;99.90;;;;;;5010070;28;20060;-60
2023/02/19 06:11:08;;;;;;;8.98;1.52;;;8.60;99.90;;;;;;5009840;28;20485;-60
2023/02/19 06:13:35;;;;;;;9.48;2.60;;;8.60;99.90;;;;;;4991804;28;20064;-61
2023/02/19 06:16:05;;;;;;;7.35;1.33;;;8.60;99.90;;;;;;5009254;28;20515;-60
2023/02/19 06:18:32;;;;;;;6.13;1.40;;;8.50;99.90;;;;;;4992202;28;20054;-60
2023/02/19 06:21:00;;;;;;;14.18;1.98;;;8.50;99.90;;;;;;5007418;28;20129;-61
2023/02/19 06:23:28;;;;;;;10.85;2.42;;;8.40;99.90;;;;;;4992360;28;20074;-60
2023/02/19 06:26:03;;;;;;;6.90;1.63;;;8.40;99.90;;;;;;5008655;28;20049;-60
2023/02/19 06:28:30;;;;;;;6.75;1.48;;;8.40;99.90;;;;;;4993642;28;20046;-61
2023/02/19 06:30:57;;;;;;;7.05;1.52;;;8.40;99.90;;;;;;5008845;28;20420;-58
2023/02/19 06:33:26;;;;;;;8.70;1.90;;;8.30;99.90;;;;;;5009259;28;20049;-59
2023/02/19 06:35:53;;;;;;;9.30;1.70;;;8.30;99.90;;;;;;4991481;28;20049;-58
2023/02/19 06:38:20;;;;;;;11.93;1.90;;;8.30;99.90;;;;;;4992088;28;20053;-60
2023/02/19 06:40:47;;;;;;;7.35;1.65;;;8.20;99.90;;;;;;5008638;28;20046;-59
2023/02/19 06:43:14;;;;;;;5.38;1.52;;;8.20;99.90;;;;;;5008906;28;20057;-60
2023/02/19 06:45:40;;;;;;;8.88;1.48;;;8.20;99.90;;;;;;5009066;28;20045;-59
2023/02/19 06:48:07;;;;;;;8.60;1.92;;;8.20;99.90;;;;;;5009137;28;20052;-60
2023/02/19 06:50:34;;;;;;;9.57;1.85;;;8.20;99.90;;;;;;4991577;28;20046;-60
2023/02/19 06:53:01;;;;;;;10.38;2.05;;;8.10;99.90;;;;;;5008715;28;20053;-59
2023/02/19 06:55:27;;;;;;;11.45;2.10;;;8.10;99.90;;;;;;5009862;28;20081;-60
2023/02/19 06:57:54;;;;;;;7.55;1.85;;;8.10;99.90;;;;;;4991294;28;20141;-59
2023/02/19 07:00:21;;;;;;;10.95;1.77;;;8.10;99.90;;;;;;5008814;28;20046;-60
2023/02/19 07:02:48;;;;;;;5.97;1.50;;;8.10;99.90;;;;;;5009280;28;20042;-59
2023/02/19 07:05:15;;;;;;;5.97;2.13;;;8.10;99.90;;;;;;5008131;28;20488;-59
2023/02/19 07:07:44;;;;;;;10.32;1.83;;;8.20;99.90;;;;;;4991401;28;20046;-60
2023/02/19 07:10:11;;;;;;;9.20;1.70;;;8.20;99.90;;;;;;5008356;28;20341;-60
2023/02/19 07:12:38;;;;;;;6.38;1.83;;;8.10;99.90;;;;;;4991114;28;20049;-59
2023/02/19 07:15:05;;;;;;;4.93;1.45;;;8.10;99.90;;;;;;5008212;28;20273;-60
2023/02/19 07:17:33;;;;;;;4.38;1.70;;;8.00;99.90;;;;;;4991030;28;20429;-60
2023/02/19 07:20:00;;;;;;;7.22;1.40;;;7.90;99.90;;;;;;5008208;28;20148;-60
2023/02/19 07:22:27;;;;;;;9.50;1.52;;;8.00;99.90;;;;;;5008402;28;20056;-61
2023/02/19 07:24:53;;;;;;;15.18;2.13;;;7.90;99.90;;;;;;5006915;28;20046;-61
2023/02/19 07:27:20;;;;;;;9.70;1.95;;;7.90;99.90;;;;;;5008093;28;20042;-60
2023/02/19 07:29:47;;;;;;;8.77;1.83;;;7.90;99.90;;;;;;5008422;28;20054;-60
2023/02/19 07:32:13;;;;;;;4.35;1.20;;;8.00;99.90;;;;;;5007990;28;20046;-60
2023/02/19 07:34:40;;;;;;;5.72;1.88;;;8.00;99.90;;;;;;5008057;28;20052;-61
2023/02/19 07:37:07;;;;;;;6.45;1.80;;;8.00;99.90;;;;;;5007902;28;20501;-60
2023/02/19 07:39:34;;;;;;;10.43;1.95;;;8.00;99.90;;;;;;5007960;28;20060;-60
2023/02/19 07:42:00;;;;;;;11.07;1.52;;;8.10;99.90;;;;;;5007490;28;20129;-60
2023/02/19 07:44:27;;;;;;;13.50;2.45;;;8.00;99.90;;;;;;5008182;28;20517;-60
2023/02/19 07:46:54;;;;;;;7.53;1.95;;;8.10;99.90;;;;;;5007901;28;20050;-59
2023/02/19 07:49:20;;;;;;;8.07;2.83;;;8.00;99.90;;;;;;5007879;28;20416;-61
2023/02/19 07:51:47;;;;;;;15.65;2.08;;;8.10;99.90;;;;;;5007222;28;20046;-61
2023/02/19 07:54:14;;;;;;;7.90;1.67;;;8.10;99.90;;;;;;5012315;28;20084;-60
2023/02/19 07:56:41;;;;;;;9.80;2.67;;;8.00;99.90;;;;;;5027912;28;20128;-60
2023/02/19 07:59:07;;;;;;;12.93;1.83;;;8.10;99.90;;;;;;5007289;28;20038;-60
2023/02/19 08:04:20;;;;;;;6.38;1.42;;;8.20;99.90;;;;;;5007429;28;20257;-60
2023/02/19 08:06:46;;;;;;;7.60;1.50;;;8.20;99.90;;;;;;5005564;28;20407;-59
2023/02/19 08:09:13;;;;;;;9.05;1.40;;;8.20;99.90;;;;;;4658428;28;10000837;-58
2023/02/19 08:14:26;;;;;;;8.63;1.58;;;8.20;99.90;;;;;;5004321;28;20068;-60
2023/02/19 08:16:53;;;;;;;4.13;1.08;;;8.20;99.90;;;;;;5004315;28;20054;-61
2023/02/19 08:19:20;;;;;;;18.35;2.40;;;8.30;99.90;;;;;;5003373;28;20493;-60
2023/02/19 08:21:46;;;;;;;6.72;1.73;;;8.40;99.90;;;;;;5004814;28;20046;-60
2023/02/19 08:24:13;;;;;;;13.25;1.30;;;8.30;99.90;;;;;;5003774;28;20057;-59
2023/02/19 08:26:40;;;;;;;7.28;1.77;;;8.20;99.90;;;;;;5003745;28;20146;-59
2023/02/19 08:29:07;;;;;;;14.43;4.20;;;8.20;99.90;;;;;;5003612;28;20046;-60
2023/02/19 08:31:33;;;;;;;15.52;1.73;;;8.20;99.90;;;;;;5002947;28;20050;-60
2023/02/19 08:34:00;;;;;;;12.32;2.95;;;8.20;99.90;;;;;;5002195;28;20054;-59
2023/02/19 08:36:27;;;;;;;12.40;1.70;;;8.30;99.90;;;;;;5003009;28;20048;-59
2023/02/19 08:38:54;;;;;;;5.65;1.50;;;8.30;99.90;;;;;;5003621;28;20058;-59
2023/02/19 08:41:21;;;;;;;6.85;1.95;;;8.40;99.90;;;;;;5004923;28;20141;-61
2023/02/19 08:43:48;;;;;;;11.82;1.42;;;8.40;99.90;;;;;;5007059;28;20140;-60
2023/02/19 08:46:14;;;;;;;9.48;1.92;;;8.30;99.90;;;;;;5006744;28;20445;-59
2023/02/19 08:48:41;;;;;;;11.43;2.35;;;8.40;99.90;;;;;;5006788;28;20053;-61
2023/02/19 08:51:09;;;;;;;10.65;2.00;;;8.40;99.90;;;;;;5006462;28;20046;-61
2023/02/19 08:53:37;;;;;;;8.60;1.55;;;8.50;99.90;;;;;;5005149;28;20050;-60
2023/02/19 08:56:14;;;;;;;9.40;1.35;;;8.50;99.90;;;;;;4999273;28;20042;-60
2023/02/19 08:58:41;;;;;;;6.10;1.27;;;8.50;99.90;;;;;;5005505;28;20429;-58
2023/02/19 09:01:13;;;;;;;5.93;1.52;;;8.50;99.90;;;;;;4987959;28;20046;-59
2023/02/19 09:03:40;;;;;;;16.77;1.85;;;8.50;99.90;;;;;;4989594;28;20050;-59
2023/02/19 09:06:09;;;;;;;9.25;1.95;;;8.60;99.90;;;;;;5009577;28;20128;-58
2023/02/19 09:08:36;;;;;;;10.10;1.58;;;8.60;99.90;;;;;;4992815;28;20056;-58
2023/02/19 09:11:05;;;;;;;12.57;2.35;;;8.60;99.90;;;;;;4992086;28;20160;-56
2023/02/19 09:13:32;;;;;;;5.93;1.63;;;8.70;99.90;;;;;;4991384;28;20145;-60
2023/02/19 09:15:59;;;;;;;10.45;1.73;;;8.70;99.90;;;;;;5007279;28;20157;-60
2023/02/19 09:18:26;;;;;;;14.32;2.40;;;8.60;99.90;;;;;;5008448;28;20046;-60
2023/02/19 09:20:52;;;;;;;6.55;1.38;;;8.70;99.90;;;;;;5008161;28;20129;-60
2023/02/19 09:23:19;;;;;;;7.00;1.70;;;8.90;99.90;;;;;;5008828;28;20088;-59
2023/02/19 09:25:46;;;;;;;12.48;1.88;;;9.20;99.90;;;;;;5007439;28;20038;-60
2023/02/19 09:28:13;;;;;;;5.93;1.67;;;9.40;99.90;;;;;;4995568;28;20435;-61
2023/02/19 09:30:39;;;;;;;8.73;1.80;;;9.50;99.90;;;;;;4995677;28;20125;-60
2023/02/19 09:33:06;;;;;;;16.15;2.17;;;9.50;99.90;;;;;;5008469;28;20319;-58
2023/02/19 09:35:33;;;;;;;12.85;2.05;;;9.40;99.90;;;;;;5008729;28;20042;-59
2023/02/19 09:38:00;;;;;;;7.40;1.58;;;9.40;99.90;;;;;;5008956;28;20041;-59
2023/02/19 09:40:28;;;;;;;5.03;1.30;;;9.30;99.90;;;;;;4992278;28;20050;-60
2023/02/19 09:42:55;;;;;;;4.72;1.13;;;9.50;99.90;;;;;;4992583;28;20062;-60
2023/02/19 09:45:23;;;;;;;7.22;1.20;;;9.50;99.90;;;;;;5010231;28;20213;-59
2023/02/19 09:47:53;;;;;;;4.32;1.30;;;9.50;99.90;;;;;;4972680;28;20489;-60
2023/02/19 09:50:21;;;;;;;8.68;1.45;;;9.50;99.90;;;;;;4957482;28;20050;-60
2023/02/19 09:52:56;;;;;;;8.60;1.55;;;9.60;99.90;;;;;;4991847;28;20112;-60
2023/02/19 09:55:30;;;;;;;4.63;1.40;;;9.60;99.90;;;;;;5010008;28;20049;-60
2023/02/19 09:57:58;;;;;;;6.10;1.20;;;9.60;99.90;;;;;;4992447;28;20518;-58
2023/02/19 10:00:26;;;;;;;5.05;1.35;;;9.70;99.90;;;;;;4976474;28;20115;-59
2023/02/19 10:02:56;;;;;;;6.80;1.48;;;9.70;99.90;;;;;;4992181;28;20053;-61
2023/02/19 10:05:23;;;;;;;9.52;2.55;;;9.70;99.90;;;;;;5010337;28;20080;-60
2023/02/19 10:07:51;;;;;;;11.20;1.95;;;9.80;99.90;;;;;;5009340;28;20136;-60
2023/02/19 10:10:28;;;;;;;19.15;2.17;;;9.80;99.90;;;;;;4992185;28;20413;-60
2023/02/19 10:12:58;;;;;;;8.57;1.77;;;9.90;99.90;;;;;;4992476;28;20510;-59
2023/02/19 10:15:37;;;;;;;8.23;2.30;;;9.90;99.90;;;;;;5009291;28;20452;-60
2023/02/19 10:18:04;;;;;;;13.30;1.80;;;10.00;99.90;;;;;;4967720;28;20047;-61
2023/02/19 10:20:31;;;;;;;4.63;1.05;;;10.00;99.90;;;;;;5006887;28;20112;-59
2023/02/19 10:23:02;;;;;;;8.13;1.83;;;10.10;99.90;;;;;;5008994;28;20056;-60
2023/02/19 10:25:29;;;;;;;7.35;1.42;;;10.00;99.90;;;;;;4992182;28;20408;-61
2023/02/19 10:28:00;;;;;;;7.75;1.50;;;10.10;99.90;;;;;;4991381;28;20046;-60
2023/02/19 10:30:36;;;;;;;9.93;1.95;;;10.10;99.90;;;;;;5009479;28;20132;-60
2023/02/19 10:33:09;;;;;;;9.00;2.33;;;10.20;99.90;;;;;;5008869;28;20053;-60
2023/02/19 10:35:56;;;;;;;31.17;3.88;;;10.10;99.90;;;;;;5002474;28;20054;-61
2023/02/19 10:38:27;;;;;;;16.10;2.85;;;10.10;99.90;;;;;;5008945;28;20064;-60
2023/02/19 10:40:58;;;;;;;8.32;1.50;;;10.00;99.90;;;;;;5006532;28;20054;-60
2023/02/19 10:43:31;;;;;;;5.03;1.35;;;10.00;99.90;;;;;;4644340;28;10000004;-60
2023/02/19 10:46:25;;;;;;;6.60;1.13;;;10.00;99.90;;;;;;4991312;28;20068;-59
2023/02/19 10:49:19;;;;;;;5.80;1.35;;;9.90;99.90;;;;;;4991719;28;20794;-61
2023/02/19 10:51:46;;;;;;;5.95;1.63;;;9.90;99.90;;;;;;4987113;28;20421;-59
2023/02/19 10:54:23;;;;;;;9.52;1.60;;;10.10;99.90;;;;;;5008509;28;20137;-60
2023/02/19 10:56:49;;;;;;;2.08;0.75;;;10.10;99.90;;;;;;4991767;28;20523;-60
2023/02/19 10:59:24;;;;;;;11.38;2.22;;;10.20;99.90;;;;;;4990807;28;20049;-60
2023/02/19 11:01:57;;;;;;;11.10;1.02;;;10.20;99.90;;;;;;5009051;28;20110;-60
2023/02/19 11:04:25;;;;;;;4.88;2.78;;;10.30;99.90;;;;;;5008695;28;20057;-61
2023/02/19 11:06:52;;;;;;;19.13;1.67;;;10.30;99.90;;;;;;4991440;28;20146;-60
2023/02/19 11:09:39;;;;;;;4.65;0.88;;;10.50;99.90;;;;;;5008593;28;20338;-60
2023/02/19 11:12:06;;;;;;;6.85;1.27;;;10.60;99.90;;;;;;5008016;28;20053;-59
2023/02/19 11:14:35;;;;;;;7.05;1.23;;;10.70;99.90;;;;;;5007817;28;20050;-63
2023/02/19 11:17:05;;;;;;;12.13;1.55;;;10.80;99.90;;;;;;5008373;28;20046;-59
2023/02/19 11:19:38;;;;;;;6.25;1.42;;;10.80;99.90;;;;;;4991011;28;20048;-64
2023/02/19 11:22:31;;;;;;;7.35;1.08;;;10.90;99.90;;;;;;5008219;28;20054;-60
2023/02/19 11:25:05;;;;;;;7.95;1.20;;;11.00;99.90;;;;;;5007227;28;20506;-59
2023/02/19 11:27:32;;;;;;;10.77;1.85;;;11.00;99.90;;;;;;5007559;28;20064;-61
2023/02/19 11:30:30;;;;;;;8.85;1.52;;;10.90;99.90;;;;;;4973930;28;20045;-62
2023/02/19 11:33:18;;;;;;;5.22;1.38;;;10.70;99.90;;;;;;4990992;28;20050;-60
2023/02/19 11:35:53;;;;;;;8.82;1.38;;;10.70;99.90;;;;;;5008402;28;20456;-59
2023/02/19 11:38:20;;;;;;;6.18;1.33;;;10.70;99.90;;;;;;4990534;28;20096;-59
2023/02/19 11:41:09;;;;;;;12.75;1.40;;;10.70;99.90;;;;;;4989854;28;20045;-60
2023/02/19 11:44:06;;;;;;;8.73;1.30;;;10.70;99.90;;;;;;4974826;28;20083;-61
2023/02/19 11:46:45;;;;;;;5.68;1.33;;;10.80;99.90;;;;;;4996028;28;20068;-60
2023/02/19 11:49:40;;;;;;;5.78;1.40;;;10.80;99.90;;;;;;5008009;28;20064;-60
2023/02/19 11:52:22;;;;;;;12.00;1.27;;;10.70;99.90;;;;;;4990235;28;20092;-60
2023/02/19 11:55:16;;;;;;;3.03;1.42;;;10.80;99.90;;;;;;5007628;28;20050;-60
2023/02/19 11:57:53;;;;;;;9.60;1.52;;;10.80;99.90;;;;;;4993770;28;20045;-61
2023/02/19 12:00:28;;;;;;;30.00;2.85;;;10.80;99.90;;;;;;4974751;28;20056;-60
2023/02/19 12:03:14;;;;;;;12.20;1.63;;;10.90;99.90;;;;;;5007861;28;20042;-60
2023/02/19 12:05:41;;;;;;;9.93;1.30;;;11.00;99.90;;;;;;4990545;28;20046;-60
2023/02/19 12:08:28;;;;;;;6.05;1.20;;;11.00;99.90;;;;;;5007567;28;20038;-61
2023/02/19 12:11:26;;;;;;;7.90;1.52;;;11.00;99.90;;;;;;5007282;28;20049;-60
2023/02/19 12:14:30;;;;;;;11.05;1.35;;;11.10;99.90;;;;;;5006887;28;20060;-60
2023/02/19 12:17:18;;;;;;;4.63;1.10;;;11.20;99.90;;;;;;5007029;28;20045;-60
2023/02/19 12:19:55;;;;;;;7.40;1.08;;;11.40;99.90;;;;;;5007278;28;20141;-59
2023/02/19 12:22:32;;;;;;;4.30;1.10;;;11.40;99.90;;;;;;5007261;28;20069;-59
2023/02/19 12:25:24;;;;;;;7.47;1.50;;;11.40;99.90;;;;;;4969903;28;20056;-60
2023/02/19 12:27:53;;;;;;;5.43;1.10;;;11.50;99.90;;;;;;5005086;28;20133;-60
2023/02/19 12:30:57;;;;;;;2.97;0.73;;;11.40;99.90;;;;;;5007432;28;20061;-59
2023/02/19 12:33:32;;;;;;;1.65;0.88;;;11.40;99.90;;;;;;5006941;28;20057;-60
2023/02/19 12:36:01;;;;;;;12.70;1.35;;;11.30;99.90;;;;;;5006968;28;20046;-60
2023/02/19 12:38:35;;;;;;;3.22;0.90;;;11.40;99.90;;;;;;4989109;28;20044;-60
2023/02/19 12:41:02;;;;;;;;;;;11.60;99.90;;;;;;5007030;28;20056;-60
2023/02/19 12:43:29;;;;;;;4.03;1.17;;;11.50;99.90;;;;;;5004425;28;20112;-61
2023/02/19 12:46:01;;;;;;;6.53;0.85;;;11.70;99.90;;;;;;4969891;28;20593;-58
2023/02/19 12:48:37;;;;;;;17.73;2.42;;;11.70;99.90;;;;;;5004569;28;20056;-58
2023/02/19 12:51:05;;;;;;;5.43;1.00;;;11.80;99.90;;;;;;5006563;28;20133;-59
2023/02/19 12:53:43;;;;;;;3.90;1.25;;;11.80;99.90;;;;;;4989165;28;20161;-60
2023/02/19 12:56:47;;;;;;;9.13;1.02;;;11.90;99.90;;;;;;4970371;28;20141;-60
2023/02/19 12:59:23;;;;;;;8.57;0.98;;;12.00;99.90;;;;;;4971275;28;20050;-60
2023/02/19 13:01:58;;;;;;;4.35;0.70;;;12.00;99.90;;;;;;5006793;28;20206;-60
2023/02/19 13:04:52;;;;;;;3.75;1.17;;;12.10;99.90;;;;;;4990115;28;20050;-61
2023/02/19 13:07:22;;;;;;;;;;;11.90;99.90;;;;;;5005979;28;20153;-61
2023/02/19 13:09:59;;;;;;;4.05;0.98;;;11.90;99.90;;;;;;5006657;28;19921;-59
2023/02/19 13:12:29;;;;;;;8.95;1.77;;;11.90;99.90;;;;;;4989203;28;20089;-60
2023/02/19 13:14:57;;;;;;;10.68;2.10;;;12.00;99.90;;;;;;4962642;28;20046;-61
2023/02/19 13:17:40;;;;;;;13.32;1.40;;;11.90;99.90;;;;;;4983147;28;20137;-61
2023/02/19 13:20:31;;;;;;;5.55;1.05;;;12.10;99.90;;;;;;5002553;28;20092;-60
2023/02/19 13:26:28;;;;;;;4.55;0.90;;;12.20;99.90;;;;;;4979250;28;20042;-61
2023/02/19 13:29:15;;;;;;;6.85;1.13;;;12.30;99.90;;;;;;4996288;28;20212;-60
2023/02/19 13:32:00;;;;;;;4.45;1.00;;;12.20;99.90;;;;;;5006018;28;20065;-60
2023/02/19 13:34:57;;;;;;;10.13;2.60;;;12.10;99.90;;;;;;5006335;28;20073;-60
2023/02/19 13:37:24;;;;;;;4.75;0.98;;;12.20;99.90;;;;;;4986990;28;20057;-60
2023/02/19 13:39:52;;;;;;;5.60;1.02;;;12.20;99.90;;;;;;5000833;28;20286;-60
2023/02/19 13:42:26;;;;;;;8.98;1.48;;;12.20;99.90;;;;;;5006036;28;20129;-59